Dawn Merchant — MYIL6 — position and weather

sailwx.info

Track history (hours):
 
Tides and Currents Weather Stations Pressure Air Temp Water Temp Dewpoint Dewpoint Depression Visibility Wind Speed Wind Dir Waves Ship Positions

Dawn Merchant

Operator: Norfolk Line

Last reported at 2019-Mar-25 23:36 UTC. Time now 2019-Mar-26 00:55 UTC.
Position S 41°16' E 174°47'.

Length 180 m; draft 5.8 m.

Type: Passenger vessel. MMSI: 232197000.

Date/timePositionNaut miles runAvg speedWind from/ knotsBaromVisibWave heightAir tempDewpointWater temp
2019-Mar-25 23:36S 41°16' E 174°47'0 0.0
2019-Mar-25 23:29S 41°16' E 174°47'4 8.1
2019-Mar-25 22:57S 41°19' E 174°51'613.5
2019-Mar-25 22:30S 41°23' E 174°46'714.7
2019-Mar-25 22:01S 41°22' E 174°36'917.3
2019-Mar-25 21:31S 41°17' E 174°27'815.4
2019-Mar-25 21:00S 41°13' E 174°18'612.7
2019-Mar-25 20:31S 41°15' E 174°10'612.5
2019-Mar-25 20:01S 41°15' E 174°02'2 4.1
2019-Mar-25 19:28S 41°17' E 174°00'0 0.0
2019-Mar-25 18:58S 41°17' E 174°00'0 0.0
2019-Mar-25 18:28S 41°17' E 174°00'0 0.0
2019-Mar-25 17:59S 41°17' E 174°00'2 4.7
2019-Mar-25 17:30S 41°15' E 174°02'611.6
2019-Mar-25 17:01S 41°15' E 174°10'612.7
2019-Mar-25 16:31S 41°13' E 174°18'816.3
2019-Mar-25 16:00S 41°17' E 174°27'815.7
2019-Mar-25 15:30S 41°21' E 174°36'815.2
2019-Mar-25 15:00S 41°23' E 174°46'713.2
2019-Mar-25 14:30S 41°16' E 174°49'2 0.9
2019-Mar-25 12:34S 41°16' E 174°47'0 1.0
2019-Mar-25 12:30S 41°16' E 174°47'610.9
2019-Mar-25 11:56S 41°22' E 174°50'715.8
2019-Mar-25 11:30S 41°23' E 174°42'815.2
2019-Mar-25 11:01S 41°20' E 174°32'816.7
2019-Mar-25 10:30S 41°15' E 174°24'612.0
2019-Mar-25 10:01S 41°14' E 174°16'612.0
2019-Mar-25 09:30S 41°14' E 174°08'612.6
2019-Mar-25 09:00S 41°17' E 174°00'0 0.0
2019-Mar-25 08:29S 41°17' E 174°00'0 0.0
2019-Mar-25 07:59S 41°17' E 174°00'0 0.0
2019-Mar-25 07:29S 41°17' E 174°00'1 3.0
2019-Mar-25 07:00S 41°16' E 174°01'612.6
2019-Mar-25 06:31S 41°15' E 174°10'714.4
2019-Mar-25 06:01S 41°13' E 174°19'816.0
2019-Mar-25 05:30S 41°17' E 174°27'713.9
2019-Mar-25 05:00S 41°21' E 174°35'713.6
2019-Mar-25 04:31S 41°23' E 174°44'713.4
2019-Mar-25 03:57S 41°17' E 174°51'3 1.2
2019-Mar-25 01:39S 41°16' E 174°47'0 0.1
2019-Mar-25 01:30S 41°16' E 174°47'6 9.6
2019-Mar-25 00:51S 41°22' E 174°50'514.5
2019-Mar-25 00:30S 41°23' E 174°44'816.4
2019-Mar-25 00:01S 41°21' E 174°34'917.9
2019-Mar-24 23:31S 41°16' E 174°24'613.0
2019-Mar-24 23:00S 41°14' E 174°15'612.5
2019-Mar-24 22:31S 41°14' E 174°07'612.0
2019-Mar-24 22:00S 41°17' E 174°00'0 0.0
2019-Mar-24 21:31S 41°17' E 174°00'0 0.0
2019-Mar-24 21:01S 41°17' E 174°00'0 0.0
2019-Mar-24 20:31S 41°17' E 174°00'0 0.3
2019-Mar-24 20:01S 41°17' E 174°01'612.6
2019-Mar-24 19:31S 41°14' E 174°08'612.7
2019-Mar-24 19:01S 41°14' E 174°16'713.2
2019-Mar-24 18:30S 41°16' E 174°25'613.0
2019-Mar-24 18:00S 41°19' E 174°32'815.0
2019-Mar-24 17:30S 41°23' E 174°41'814.7
2019-Mar-24 16:56S 41°19' E 174°51'410.0
2019-Mar-24 16:30S 41°16' E 174°47'0 0.0
2019-Mar-24 16:00S 41°16' E 174°47'0 0.0
2019-Mar-24 15:24S 41°16' E 174°47'0 0.0
2019-Mar-24 15:00S 41°16' E 174°47'4 8.2
2019-Mar-24 14:28S 41°19' E 174°51'613.4
2019-Mar-24 14:01S 41°24' E 174°45'918.6
2019-Mar-24 13:31S 41°21' E 174°34'918.0
2019-Mar-24 13:01S 41°15' E 174°24'713.8
2019-Mar-24 12:31S 41°14' E 174°15'713.7
2019-Mar-24 12:01S 41°14' E 174°06'5 9.6
2019-Mar-24 11:31S 41°17' E 174°00'0 0.0
2019-Mar-24 10:58S 41°17' E 174°00'0 0.0
2019-Mar-24 10:28S 41°17' E 174°00'0 0.1
2019-Mar-24 10:01S 41°17' E 174°00'510.0
2019-Mar-24 09:30S 41°14' E 174°06'713.7
2019-Mar-24 09:00S 41°14' E 174°15'713.8
2019-Mar-24 08:30S 41°15' E 174°24'816.5
2019-Mar-24 08:00S 41°20' E 174°33'918.0
2019-Mar-24 07:30S 41°23' E 174°45'713.1
2019-Mar-24 06:57S 41°17' E 174°50'3 5.3
2019-Mar-24 06:27S 41°16' E 174°47'0 0.0
2019-Mar-24 05:51S 41°16' E 174°47'0 1.5
2019-Mar-24 05:30S 41°16' E 174°48'1 1.8
2019-Mar-24 04:59S 41°16' E 174°49'1 1.2
2019-Mar-24 04:30S 41°16' E 174°50'2 3.4
2019-Mar-24 04:00S 41°16' E 174°47'0 0.0
2019-Mar-24 03:12S 41°16' E 174°47'0 0.0
2019-Mar-24 02:36S 41°16' E 174°47'0 0.0
2019-Mar-24 02:15S 41°16' E 174°47'0 0.0
2019-Mar-24 01:51S 41°16' E 174°47'0 0.0
2019-Mar-24 01:30S 41°16' E 174°47'0 0.0
2019-Mar-24 01:00S 41°16' E 174°47'0 0.0
2019-Mar-23 23:57S 41°16' E 174°47'0 0.0
2019-Mar-23 23:18S 41°16' E 174°47'0 0.0
2019-Mar-23 23:00S 41°16' E 174°47'0 0.0
2019-Mar-23 22:27S 41°16' E 174°47'0 0.0
2019-Mar-23 21:42S 41°16' E 174°47'0 0.0
2019-Mar-23 21:15S 41°16' E 174°47'0 0.0
2019-Mar-23 20:54S 41°16' E 174°47'0 0.0
2019-Mar-23 20:30S 41°16' E 174°47'1 1.4
2019-Mar-23 20:00S 41°16' E 174°48'1 1.5
2019-Mar-23 19:30S 41°16' E 174°49'0 0.0
2019-Mar-23 19:00S 41°16' E 174°49'0 0.0
2019-Mar-23 18:30S 41°16' E 174°49'0 0.0
2019-Mar-23 18:00S 41°16' E 174°49'0 0.0
2019-Mar-23 17:30S 41°16' E 174°49'0 0.0
2019-Mar-23 17:00S 41°16' E 174°49'0 0.0
2019-Mar-23 16:30S 41°16' E 174°49'0 0.0
2019-Mar-23 16:00S 41°16' E 174°49'0 0.0
2019-Mar-23 15:30S 41°16' E 174°49'0 0.0
2019-Mar-23 15:00S 41°16' E 174°49'0 0.0
2019-Mar-23 14:30S 41°16' E 174°49'0 0.1
2019-Mar-23 13:59S 41°16' E 174°49'1 1.9
2019-Mar-23 13:23S 41°16' E 174°47'0 0.0
2019-Mar-23 12:59S 41°16' E 174°47'1 2.9
2019-Mar-23 12:31S 41°16' E 174°49'714.5
2019-Mar-23 12:01S 41°23' E 174°49'918.4
2019-Mar-23 11:30S 41°21' E 174°37'1019.3
2019-Mar-23 11:00S 41°13' E 174°32'918.1
2019-Mar-23 10:30S 41°05' E 174°26'816.3
2019-Mar-23 10:01S 41°07' E 174°16'815.2
2019-Mar-23 09:31S 41°13' E 174°10'714.3
2019-Mar-23 09:00S 41°16' E 174°01'1 1.6
2019-Mar-23 08:28S 41°17' E 174°00'0 0.0
2019-Mar-23 07:58S 41°17' E 174°00'0 0.0
2019-Mar-23 07:28S 41°17' E 174°00'0 0.2
2019-Mar-23 07:00S 41°17' E 174°00'5 9.4
2019-Mar-23 06:30S 41°14' E 174°05'612.1
2019-Mar-23 06:01S 41°14' E 174°13'713.6
2019-Mar-23 05:31S 41°15' E 174°22'816.7
2019-Mar-23 05:01S 41°19' E 174°32'816.9
2019-Mar-23 04:31S 41°23' E 174°42'815.3
2019-Mar-23 04:00S 41°19' E 174°51'4 1.3
2019-Mar-23 00:34S 41°16' E 174°47'0 0.0
2019-Mar-22 23:29S 41°16' E 174°47'4 8.3
2019-Mar-22 22:56S 41°19' E 174°51'613.8
2019-Mar-22 22:31S 41°23' E 174°46'917.1
2019-Mar-22 22:01S 41°21' E 174°35'918.3
2019-Mar-22 21:31S 41°16' E 174°24'713.2
2019-Mar-22 21:00S 41°14' E 174°16'611.2
2019-Mar-22 20:31S 41°14' E 174°09'713.7
2019-Mar-22 20:00S 41°17' E 174°01'0 0.4
2019-Mar-22 19:28S 41°17' E 174°00'0 0.0
2019-Mar-22 18:58S 41°17' E 174°00'0 0.0
2019-Mar-22 18:28S 41°17' E 174°00'0 0.0
2019-Mar-22 18:00S 41°17' E 174°00'5 9.5
2019-Mar-22 17:30S 41°14' E 174°05'713.1
2019-Mar-22 17:00S 41°14' E 174°14'714.7
2019-Mar-22 16:30S 41°15' E 174°24'917.9
2019-Mar-22 16:00S 41°20' E 174°34'918.2
2019-Mar-22 15:30S 41°23' E 174°45'713.5
2019-Mar-22 15:00S 41°17' E 174°50'2 3.5
2019-Mar-22 14:28S 41°16' E 174°47'0 0.0
2019-Mar-22 13:01S 41°16' E 174°47'0 0.0
2019-Mar-22 12:53S 41°16' E 174°47'3 7.6
2019-Mar-22 12:30S 41°17' E 174°51'714.6
2019-Mar-22 12:00S 41°24' E 174°48'917.3
2019-Mar-22 11:30S 41°21' E 174°37'917.9
2019-Mar-22 11:00S 41°13' E 174°32'917.5
2019-Mar-22 10:30S 41°05' E 174°27'816.2
2019-Mar-22 10:00S 41°06' E 174°17'815.2
2019-Mar-22 09:30S 41°13' E 174°11'714.7
2019-Mar-22 09:00S 41°15' E 174°02'2 3.6
2019-Mar-22 08:28S 41°17' E 174°00'0 0.0
2019-Mar-22 07:58S 41°17' E 174°00'0 0.0
2019-Mar-22 07:29S 41°17' E 174°00'3 5.4
2019-Mar-22 07:00S 41°15' E 174°02'715.0
2019-Mar-22 06:30S 41°12' E 174°11'714.6
2019-Mar-22 06:00S 41°06' E 174°17'816.7
2019-Mar-22 05:31S 41°05' E 174°28'1019.7
2019-Mar-22 05:00S 41°15' E 174°33'1019.1
2019-Mar-22 04:30S 41°22' E 174°40'917.3
2019-Mar-22 03:59S 41°19' E 174°51'4 4.2
2019-Mar-22 02:57S 41°16' E 174°47'0 0.0
2019-Mar-22 02:09S 41°16' E 174°47'0 0.0
2019-Mar-21 23:57S 41°16' E 174°47'0 0.0
2019-Mar-21 23:28S 41°16' E 174°47'3 5.6
2019-Mar-21 23:00S 41°16' E 174°51'714.7
2019-Mar-21 22:30S 41°23' E 174°49'918.4
2019-Mar-21 22:00S 41°22' E 174°37'918.3
2019-Mar-21 21:30S 41°17' E 174°26'815.8
2019-Mar-21 21:00S 41°13' E 174°17'611.9
2019-Mar-21 20:31S 41°14' E 174°09'713.4
2019-Mar-21 20:00S 41°16' E 174°01'1 1.3
2019-Mar-21 19:30S 41°17' E 174°00'0 0.0
2019-Mar-21 19:00S 41°17' E 174°00'0 0.0
2019-Mar-21 18:30S 41°17' E 174°00'0 0.0
2019-Mar-21 18:00S 41°17' E 174°00'2 5.1
2019-Mar-21 17:30S 41°15' E 174°02'612.2
2019-Mar-21 17:00S 41°15' E 174°10'815.1
2019-Mar-21 16:30S 41°13' E 174°20'816.4
2019-Mar-21 16:00S 41°18' E 174°29'815.7
2019-Mar-21 15:30S 41°22' E 174°38'1014.5
2019-Mar-21 14:48S 41°19' E 174°51'410.2
2019-Mar-21 14:23S 41°16' E 174°47'0 0.0
2019-Mar-21 13:53S 41°16' E 174°47'0 0.0
2019-Mar-21 13:11S 41°16' E 174°47'0 0.0
2019-Mar-21 12:38S 41°16' E 174°47'0 0.9
2019-Mar-21 12:30S 41°16' E 174°47'611.2
2019-Mar-21 11:56S 41°22' E 174°50'715.9
2019-Mar-21 11:31S 41°23' E 174°41'918.3
2019-Mar-21 11:01S 41°19' E 174°30'917.1
2019-Mar-21 10:31S 41°14' E 174°21'714.1
2019-Mar-21 10:00S 41°15' E 174°12'713.0
2019-Mar-21 09:30S 41°15' E 174°03'3 5.7
2019-Mar-21 09:00S 41°17' E 174°00'0 0.0
2019-Mar-21 08:30S 41°17' E 174°00'0 0.0
2019-Mar-21 08:00S 41°17' E 174°00'0 0.0
2019-Mar-21 07:30S 41°17' E 174°00'0 0.0
2019-Mar-21 07:00S 41°17' E 174°00'4 8.2
2019-Mar-21 06:30S 41°14' E 174°04'713.1
2019-Mar-21 06:00S 41°14' E 174°13'714.3
2019-Mar-21 05:30S 41°15' E 174°23'817.0
2019-Mar-21 05:00S 41°19' E 174°32'919.0
2019-Mar-21 04:30S 41°23' E 174°44'714.4
2019-Mar-21 03:59S 41°18' E 174°51'3 4.6
2019-Mar-21 03:17S 41°16' E 174°47'0 0.0
2019-Mar-21 00:38S 41°16' E 174°47'0 0.0
2019-Mar-20 23:32S 41°16' E 174°47'0 0.2
2019-Mar-20 23:26S 41°16' E 174°47'4 9.5
2019-Mar-20 22:58S 41°19' E 174°51'714.2
2019-Mar-20 22:30S 41°23' E 174°45'1019.6
2019-Mar-20 22:00S 41°20' E 174°32'816.1
2019-Mar-20 21:30S 41°16' E 174°23'612.4
2019-Mar-20 21:01S 41°14' E 174°15'612.7
2019-Mar-20 20:31S 41°14' E 174°07'611.5
2019-Mar-20 20:00S 41°17' E 174°00'0 0.0
2019-Mar-20 19:30S 41°17' E 174°00'0 0.0
2019-Mar-20 19:00S 41°17' E 174°00'0 0.0
2019-Mar-20 18:30S 41°17' E 174°00'0 0.0
2019-Mar-20 18:00S 41°17' E 174°00'0 0.7
2019-Mar-20 17:30S 41°17' E 174°01'713.4
2019-Mar-20 17:00S 41°14' E 174°08'713.0
2019-Mar-20 16:30S 41°13' E 174°17'714.5
2019-Mar-20 16:00S 41°16' E 174°26'815.3
2019-Mar-20 15:30S 41°20' E 174°34'815.9
2019-Mar-20 15:00S 41°23' E 174°44'713.8
2019-Mar-20 14:30S 41°18' E 174°51'3 5.3
2019-Mar-20 13:52S 41°16' E 174°47'0 0.0
2019-Mar-20 13:16S 41°16' E 174°47'0 0.0
2019-Mar-20 12:34S 41°16' E 174°47'0 0.0
2019-Mar-20 12:22S 41°16' E 174°47'1 4.0
2019-Mar-20 12:00S 41°16' E 174°49'713.6
2019-Mar-20 11:30S 41°23' E 174°50'918.0
2019-Mar-20 11:00S 41°23' E 174°38'917.2
2019-Mar-20 10:30S 41°18' E 174°28'816.1
2019-Mar-20 10:00S 41°13' E 174°20'815.2
2019-Mar-20 09:31S 41°15' E 174°10'612.4
2019-Mar-20 09:00S 41°16' E 174°02'2 3.2
2019-Mar-20 08:28S 41°17' E 174°00'0 0.0
2019-Mar-20 07:58S 41°17' E 174°00'0 0.0
2019-Mar-20 07:28S 41°17' E 174°00'0 0.5
2019-Mar-20 07:01S 41°17' E 174°00'612.7
2019-Mar-20 06:30S 41°14' E 174°08'713.1
2019-Mar-20 06:00S 41°13' E 174°17'714.8
2019-Mar-20 05:30S 41°16' E 174°26'918.0
2019-Mar-20 05:00S 41°21' E 174°36'1019.1
2019-Mar-20 04:30S 41°22' E 174°48'612.3
2019-Mar-20 04:01S 41°16' E 174°48'1 0.2
2019-Mar-19 23:25S 41°16' E 174°47'410.5
2019-Mar-19 23:00S 41°19' E 174°51'713.6
2019-Mar-19 22:30S 41°23' E 174°44'918.0
2019-Mar-19 22:01S 41°20' E 174°33'816.8
2019-Mar-19 21:30S 41°16' E 174°24'713.7
2019-Mar-19 21:00S 41°14' E 174°15'713.1
2019-Mar-19 20:31S 41°14' E 174°06'510.1
2019-Mar-19 20:00S 41°17' E 174°00'0 0.0
2019-Mar-19 19:29S 41°17' E 174°00'0 0.0
2019-Mar-19 18:59S 41°17' E 174°00'0 0.0
2019-Mar-19 18:29S 41°17' E 174°00'0 0.0
2019-Mar-19 17:58S 41°17' E 174°00'0 0.4
2019-Mar-19 17:31S 41°17' E 174°01'510.4
2019-Mar-19 17:01S 41°14' E 174°06'713.3
2019-Mar-19 16:31S 41°14' E 174°15'713.5
2019-Mar-19 16:00S 41°15' E 174°24'816.6
2019-Mar-19 15:31S 41°20' E 174°33'917.9
2019-Mar-19 15:00S 41°23' E 174°45'713.4
2019-Mar-19 14:29S 41°17' E 174°51'3 5.9
2019-Mar-19 14:00S 41°16' E 174°47'0 0.0
2019-Mar-19 13:28S 41°16' E 174°47'0 0.0
2019-Mar-19 13:01S 41°16' E 174°47'0 0.0
2019-Mar-19 12:13S 41°16' E 174°47'0 0.0
2019-Mar-19 11:46S 41°16' E 174°47'0 0.0
2019-Mar-19 11:13S 41°16' E 174°47'0 0.0
2019-Mar-19 10:55S 41°16' E 174°47'0 0.0
2019-Mar-19 10:25S 41°16' E 174°47'1 2.4
2019-Mar-19 10:00S 41°16' E 174°48'713.4
2019-Mar-19 09:31S 41°23' E 174°50'1019.4
2019-Mar-19 09:00S 41°22' E 174°37'918.8
2019-Mar-19 08:30S 41°17' E 174°26'816.1
2019-Mar-19 08:00S 41°13' E 174°17'612.6
2019-Mar-19 07:30S 41°14' E 174°08'713.4
2019-Mar-19 07:00S 41°17' E 174°01'0 0.5
2019-Mar-19 06:30S 41°17' E 174°00'0 0.0
2019-Mar-19 06:00S 41°17' E 174°00'0 0.0
2019-Mar-19 05:30S 41°17' E 174°00'0 0.0
2019-Mar-19 05:01S 41°17' E 174°00'5 9.6
2019-Mar-19 04:30S 41°14' E 174°05'713.5
2019-Mar-19 04:01S 41°14' E 174°14'815.0
2019-Mar-19 03:31S 41°15' E 174°24'1019.2
2019-Mar-19 03:01S 41°21' E 174°35'1020.2
2019-Mar-19 02:31S 41°22' E 174°48'612.3
2019-Mar-19 01:59S 41°16' E 174°47'0 0.1
2019-Mar-18 23:20S 41°16' E 174°47'611.6
2019-Mar-18 22:50S 41°22' E 174°50'515.0
2019-Mar-18 22:30S 41°23' E 174°44'918.8
2019-Mar-18 22:00S 41°20' E 174°33'917.2
2019-Mar-18 21:30S 41°16' E 174°23'713.7
2019-Mar-18 21:00S 41°14' E 174°14'713.4
2019-Mar-18 20:30S 41°14' E 174°05'4 8.7
2019-Mar-18 19:59S 41°17' E 174°00'0 0.0
2019-Mar-18 19:29S 41°17' E 174°00'0 0.0
2019-Mar-18 18:59S 41°17' E 174°00'0 0.0
2019-Mar-18 18:29S 41°17' E 174°00'0 0.0
2019-Mar-18 17:59S 41°17' E 174°00'1 1.8
2019-Mar-18 17:31S 41°16' E 174°01'713.4
2019-Mar-18 17:00S 41°14' E 174°09'713.4
2019-Mar-18 16:31S 41°13' E 174°18'815.9
2019-Mar-18 16:00S 41°17' E 174°27'917.4
2019-Mar-18 15:31S 41°21' E 174°37'917.7
2019-Mar-18 15:00S 41°22' E 174°49'611.8
2019-Mar-18 14:30S 41°16' E 174°49'1 2.3
2019-Mar-18 14:00S 41°16' E 174°47'0 0.0
2019-Mar-18 13:07S 41°16' E 174°47'0 0.0
2019-Mar-18 12:49S 41°16' E 174°47'0 0.0
2019-Mar-18 11:31S 41°16' E 174°47'0 0.0
2019-Mar-18 10:22S 41°16' E 174°47'0 1.0
2019-Mar-18 10:00S 41°16' E 174°48'611.4
2019-Mar-18 09:29S 41°22' E 174°50'715.8
2019-Mar-18 09:01S 41°24' E 174°41'918.2
2019-Mar-18 08:31S 41°19' E 174°30'917.5
2019-Mar-18 08:01S 41°14' E 174°21'714.4
2019-Mar-18 07:31S 41°15' E 174°11'612.7
2019-Mar-18 07:01S 41°15' E 174°03'3 5.9
2019-Mar-18 06:31S 41°17' E 174°00'0 0.0
2019-Mar-18 05:58S 41°17' E 174°00'0 0.0
2019-Mar-18 05:28S 41°17' E 174°00'0 0.3
2019-Mar-18 05:00S 41°17' E 174°01'612.4
2019-Mar-18 04:30S 41°14' E 174°08'713.1
2019-Mar-18 04:00S 41°14' E 174°16'714.9
2019-Mar-18 03:30S 41°16' E 174°26'816.7
2019-Mar-18 03:00S 41°21' E 174°35'918.2
2019-Mar-18 02:30S 41°22' E 174°47'612.4
2019-Mar-18 02:00S 41°17' E 174°50'2 0.6
2019-Mar-17 23:12S 41°16' E 174°47'210.2
2019-Mar-17 23:00S 41°16' E 174°50'715.0
2019-Mar-17 22:30S 41°24' E 174°49'918.6
2019-Mar-17 22:01S 41°22' E 174°36'918.6
2019-Mar-17 21:30S 41°17' E 174°26'815.1
2019-Mar-17 21:00S 41°13' E 174°17'713.3
2019-Mar-17 20:30S 41°14' E 174°08'713.4
2019-Mar-17 20:00S 41°17' E 174°01'0 0.4
2019-Mar-17 19:29S 41°17' E 174°00'0 0.0
2019-Mar-17 18:59S 41°17' E 174°00'0 0.0
2019-Mar-17 18:29S 41°17' E 174°00'0 0.0
2019-Mar-17 18:00S 41°17' E 174°00'1 2.0
2019-Mar-17 17:30S 41°16' E 174°01'714.2
2019-Mar-17 17:00S 41°13' E 174°10'714.4
2019-Mar-17 16:30S 41°07' E 174°15'815.1
2019-Mar-17 16:00S 41°04' E 174°25'1019.4
2019-Mar-17 15:30S 41°12' E 174°32'1020.9
2019-Mar-17 15:01S 41°22' E 174°38'1017.3
2019-Mar-17 14:25S 41°20' E 174°51'5 1.1
2019-Mar-17 10:01S 41°16' E 174°47'0 1.3
2019-Mar-17 10:00S 41°16' E 174°47'4 8.8
2019-Mar-17 09:30S 41°19' E 174°51'612.6
2019-Mar-17 09:00S 41°24' E 174°45'917.4
2019-Mar-17 08:30S 41°21' E 174°34'917.4
2019-Mar-17 08:00S 41°16' E 174°25'713.8
2019-Mar-17 07:30S 41°14' E 174°16'713.5
2019-Mar-17 07:00S 41°14' E 174°07'611.5
2019-Mar-17 06:30S 41°17' E 174°00'0 0.0
2019-Mar-17 05:59S 41°17' E 174°00'0 0.0
2019-Mar-17 05:29S 41°17' E 174°00'0 0.0
2019-Mar-17 05:01S 41°17' E 174°00'4 7.8
2019-Mar-17 04:30S 41°14' E 174°04'713.2
2019-Mar-17 04:00S 41°14' E 174°13'714.0
2019-Mar-17 03:30S 41°14' E 174°22'816.4
2019-Mar-17 03:00S 41°18' E 174°32'918.7
2019-Mar-17 02:30S 41°23' E 174°43'814.9
2019-Mar-17 01:59S 41°19' E 174°51'4 1.4
2019-Mar-16 23:13S 41°16' E 174°47'2 7.8
2019-Mar-16 23:00S 41°16' E 174°49'713.6
2019-Mar-16 22:31S 41°23' E 174°50'815.9
2019-Mar-16 22:01S 41°23' E 174°39'917.6
2019-Mar-16 21:31S 41°18' E 174°29'816.5
2019-Mar-16 21:01S 41°14' E 174°20'714.8
2019-Mar-16 20:31S 41°15' E 174°10'612.8
2019-Mar-16 20:01S 41°15' E 174°02'2 3.7
2019-Mar-16 19:28S 41°17' E 174°00'0 0.0
2019-Mar-16 18:58S 41°17' E 174°00'0 0.0
2019-Mar-16 18:28S 41°17' E 174°00'0 0.0
2019-Mar-16 18:01S 41°17' E 174°00'1 1.8
2019-Mar-16 17:30S 41°16' E 174°01'714.4
2019-Mar-16 17:00S 41°13' E 174°10'714.3
2019-Mar-16 16:30S 41°07' E 174°15'815.2
2019-Mar-16 16:00S 41°04' E 174°24'1019.9
2019-Mar-16 15:30S 41°12' E 174°32'1121.7
2019-Mar-16 15:01S 41°22' E 174°38'1018.2
2019-Mar-16 14:28S 41°20' E 174°51'5 2.3
2019-Mar-16 12:22S 41°16' E 174°47'4 8.9
2019-Mar-16 11:58S 41°18' E 174°51'714.4
2019-Mar-16 11:30S 41°23' E 174°47'816.1
2019-Mar-16 11:00S 41°22' E 174°37'817.0
2019-Mar-16 10:30S 41°17' E 174°27'815.8
2019-Mar-16 10:01S 41°13' E 174°19'714.7
2019-Mar-16 09:31S 41°15' E 174°09'612.5
2019-Mar-16 09:00S 41°16' E 174°01'1 2.2
2019-Mar-16 08:30S 41°17' E 174°00'0 0.0
2019-Mar-16 08:00S 41°17' E 174°00'0 0.0
2019-Mar-16 07:30S 41°17' E 174°00'3 5.2
2019-Mar-16 07:00S 41°15' E 174°02'612.6
2019-Mar-16 06:31S 41°15' E 174°11'713.5
2019-Mar-16 06:01S 41°13' E 174°19'815.8
2019-Mar-16 05:31S 41°17' E 174°28'816.1
2019-Mar-16 05:00S 41°21' E 174°37'815.9
2019-Mar-16 04:30S 41°22' E 174°47'611.9
2019-Mar-16 04:00S 41°16' E 174°49'1 2.6
2019-Mar-16 03:27S 41°16' E 174°47'0 0.0
2019-Mar-16 00:48S 41°16' E 174°47'  
Track history (hours):
 
Tides and Currents Weather Stations Pressure Air Temp Water Temp Dewpoint Dewpoint Depression Visibility Wind Speed Wind Dir Waves Ship Positions

Dawn Merchant

Operator: Norfolk Line

Last reported at 2019-Mar-25 23:36 UTC. Time now 2019-Mar-26 00:55 UTC.
Position S 41°16' E 174°47'.

Length 180 m; draft 5.8 m.

Type: Passenger vessel. MMSI: 232197000.

Date/timePositionNaut miles runAvg speedWind from/ knotsBaromVisibWave heightAir tempDewpointWater temp
2019-Mar-25 23:36S 41°16' E 174°47'0 0.0
2019-Mar-25 23:29S 41°16' E 174°47'4 8.1
2019-Mar-25 22:57S 41°19' E 174°51'613.5
2019-Mar-25 22:30S 41°23' E 174°46'714.7
2019-Mar-25 22:01S 41°22' E 174°36'917.3
2019-Mar-25 21:31S 41°17' E 174°27'815.4
2019-Mar-25 21:00S 41°13' E 174°18'612.7
2019-Mar-25 20:31S 41°15' E 174°10'612.5
2019-Mar-25 20:01S 41°15' E 174°02'2 4.1
2019-Mar-25 19:28S 41°17' E 174°00'0 0.0
2019-Mar-25 18:58S 41°17' E 174°00'0 0.0
2019-Mar-25 18:28S 41°17' E 174°00'0 0.0
2019-Mar-25 17:59S 41°17' E 174°00'2 4.7
2019-Mar-25 17:30S 41°15' E 174°02'611.6
2019-Mar-25 17:01S 41°15' E 174°10'612.7
2019-Mar-25 16:31S 41°13' E 174°18'816.3
2019-Mar-25 16:00S 41°17' E 174°27'815.7
2019-Mar-25 15:30S 41°21' E 174°36'815.2
2019-Mar-25 15:00S 41°23' E 174°46'713.2
2019-Mar-25 14:30S 41°16' E 174°49'2 0.9
2019-Mar-25 12:34S 41°16' E 174°47'0 1.0
2019-Mar-25 12:30S 41°16' E 174°47'610.9
2019-Mar-25 11:56S 41°22' E 174°50'715.8
2019-Mar-25 11:30S 41°23' E 174°42'815.2
2019-Mar-25 11:01S 41°20' E 174°32'816.7
2019-Mar-25 10:30S 41°15' E 174°24'612.0
2019-Mar-25 10:01S 41°14' E 174°16'612.0
2019-Mar-25 09:30S 41°14' E 174°08'612.6
2019-Mar-25 09:00S 41°17' E 174°00'0 0.0
2019-Mar-25 08:29S 41°17' E 174°00'0 0.0
2019-Mar-25 07:59S 41°17' E 174°00'0 0.0
2019-Mar-25 07:29S 41°17' E 174°00'1 3.0
2019-Mar-25 07:00S 41°16' E 174°01'612.6
2019-Mar-25 06:31S 41°15' E 174°10'714.4
2019-Mar-25 06:01S 41°13' E 174°19'816.0
2019-Mar-25 05:30S 41°17' E 174°27'713.9
2019-Mar-25 05:00S 41°21' E 174°35'713.6
2019-Mar-25 04:31S 41°23' E 174°44'713.4
2019-Mar-25 03:57S 41°17' E 174°51'3 1.2
2019-Mar-25 01:39S 41°16' E 174°47'0 0.1
2019-Mar-25 01:30S 41°16' E 174°47'6 9.6
2019-Mar-25 00:51S 41°22' E 174°50'514.5
2019-Mar-25 00:30S 41°23' E 174°44'816.4
2019-Mar-25 00:01S 41°21' E 174°34'917.9
2019-Mar-24 23:31S 41°16' E 174°24'613.0
2019-Mar-24 23:00S 41°14' E 174°15'612.5
2019-Mar-24 22:31S 41°14' E 174°07'612.0
2019-Mar-24 22:00S 41°17' E 174°00'0 0.0
2019-Mar-24 21:31S 41°17' E 174°00'0 0.0
2019-Mar-24 21:01S 41°17' E 174°00'0 0.0
2019-Mar-24 20:31S 41°17' E 174°00'0 0.3
2019-Mar-24 20:01S 41°17' E 174°01'612.6
2019-Mar-24 19:31S 41°14' E 174°08'612.7
2019-Mar-24 19:01S 41°14' E 174°16'713.2
2019-Mar-24 18:30S 41°16' E 174°25'613.0
2019-Mar-24 18:00S 41°19' E 174°32'815.0
2019-Mar-24 17:30S 41°23' E 174°41'814.7
2019-Mar-24 16:56S 41°19' E 174°51'410.0
2019-Mar-24 16:30S 41°16' E 174°47'0 0.0
2019-Mar-24 16:00S 41°16' E 174°47'0 0.0
2019-Mar-24 15:24S 41°16' E 174°47'0 0.0
2019-Mar-24 15:00S 41°16' E 174°47'4 8.2
2019-Mar-24 14:28S 41°19' E 174°51'613.4
2019-Mar-24 14:01S 41°24' E 174°45'918.6
2019-Mar-24 13:31S 41°21' E 174°34'918.0
2019-Mar-24 13:01S 41°15' E 174°24'713.8
2019-Mar-24 12:31S 41°14' E 174°15'713.7
2019-Mar-24 12:01S 41°14' E 174°06'5 9.6
2019-Mar-24 11:31S 41°17' E 174°00'0 0.0
2019-Mar-24 10:58S 41°17' E 174°00'0 0.0
2019-Mar-24 10:28S 41°17' E 174°00'0 0.1
2019-Mar-24 10:01S 41°17' E 174°00'510.0
2019-Mar-24 09:30S 41°14' E 174°06'713.7
2019-Mar-24 09:00S 41°14' E 174°15'713.8
2019-Mar-24 08:30S 41°15' E 174°24'816.5
2019-Mar-24 08:00S 41°20' E 174°33'918.0
2019-Mar-24 07:30S 41°23' E 174°45'713.1
2019-Mar-24 06:57S 41°17' E 174°50'3 5.3
2019-Mar-24 06:27S 41°16' E 174°47'0 0.0
2019-Mar-24 05:51S 41°16' E 174°47'0 1.5
2019-Mar-24 05:30S 41°16' E 174°48'1 1.8
2019-Mar-24 04:59S 41°16' E 174°49'1 1.2
2019-Mar-24 04:30S 41°16' E 174°50'2 3.4
2019-Mar-24 04:00S 41°16' E 174°47'0 0.0
2019-Mar-24 03:12S 41°16' E 174°47'0 0.0
2019-Mar-24 02:36S 41°16' E 174°47'0 0.0
2019-Mar-24 02:15S 41°16' E 174°47'0 0.0
2019-Mar-24 01:51S 41°16' E 174°47'0 0.0
2019-Mar-24 01:30S 41°16' E 174°47'0 0.0
2019-Mar-24 01:00S 41°16' E 174°47'0 0.0
2019-Mar-23 23:57S 41°16' E 174°47'0 0.0
2019-Mar-23 23:18S 41°16' E 174°47'0 0.0
2019-Mar-23 23:00S 41°16' E 174°47'0 0.0
2019-Mar-23 22:27S 41°16' E 174°47'0 0.0
2019-Mar-23 21:42S 41°16' E 174°47'0 0.0
2019-Mar-23 21:15S 41°16' E 174°47'0 0.0
2019-Mar-23 20:54S 41°16' E 174°47'0 0.0
2019-Mar-23 20:30S 41°16' E 174°47'1 1.4
2019-Mar-23 20:00S 41°16' E 174°48'1 1.5
2019-Mar-23 19:30S 41°16' E 174°49'0 0.0
2019-Mar-23 19:00S 41°16' E 174°49'0 0.0
2019-Mar-23 18:30S 41°16' E 174°49'0 0.0
2019-Mar-23 18:00S 41°16' E 174°49'0 0.0
2019-Mar-23 17:30S 41°16' E 174°49'0 0.0
2019-Mar-23 17:00S 41°16' E 174°49'0 0.0
2019-Mar-23 16:30S 41°16' E 174°49'0 0.0
2019-Mar-23 16:00S 41°16' E 174°49'0 0.0
2019-Mar-23 15:30S 41°16' E 174°49'0 0.0
2019-Mar-23 15:00S 41°16' E 174°49'0 0.0
2019-Mar-23 14:30S 41°16' E 174°49'0 0.1
2019-Mar-23 13:59S 41°16' E 174°49'1 1.9
2019-Mar-23 13:23S 41°16' E 174°47'0 0.0
2019-Mar-23 12:59S 41°16' E 174°47'1 2.9
2019-Mar-23 12:31S 41°16' E 174°49'714.5
2019-Mar-23 12:01S 41°23' E 174°49'918.4
2019-Mar-23 11:30S 41°21' E 174°37'1019.3
2019-Mar-23 11:00S 41°13' E 174°32'918.1
2019-Mar-23 10:30S 41°05' E 174°26'816.3
2019-Mar-23 10:01S 41°07' E 174°16'815.2
2019-Mar-23 09:31S 41°13' E 174°10'714.3
2019-Mar-23 09:00S 41°16' E 174°01'1 1.6
2019-Mar-23 08:28S 41°17' E 174°00'0 0.0
2019-Mar-23 07:58S 41°17' E 174°00'0 0.0
2019-Mar-23 07:28S 41°17' E 174°00'0 0.2
2019-Mar-23 07:00S 41°17' E 174°00'5 9.4
2019-Mar-23 06:30S 41°14' E 174°05'612.1
2019-Mar-23 06:01S 41°14' E 174°13'713.6
2019-Mar-23 05:31S 41°15' E 174°22'816.7
2019-Mar-23 05:01S 41°19' E 174°32'816.9
2019-Mar-23 04:31S 41°23' E 174°42'815.3
2019-Mar-23 04:00S 41°19' E 174°51'4 1.3
2019-Mar-23 00:34S 41°16' E 174°47'0 0.0
2019-Mar-22 23:29S 41°16' E 174°47'4 8.3
2019-Mar-22 22:56S 41°19' E 174°51'613.8
2019-Mar-22 22:31S 41°23' E 174°46'917.1
2019-Mar-22 22:01S 41°21' E 174°35'918.3
2019-Mar-22 21:31S 41°16' E 174°24'713.2
2019-Mar-22 21:00S 41°14' E 174°16'611.2
2019-Mar-22 20:31S 41°14' E 174°09'713.7
2019-Mar-22 20:00S 41°17' E 174°01'0 0.4
2019-Mar-22 19:28S 41°17' E 174°00'0 0.0
2019-Mar-22 18:58S 41°17' E 174°00'0 0.0
2019-Mar-22 18:28S 41°17' E 174°00'0 0.0
2019-Mar-22 18:00S 41°17' E 174°00'5 9.5
2019-Mar-22 17:30S 41°14' E 174°05'713.1
2019-Mar-22 17:00S 41°14' E 174°14'714.7
2019-Mar-22 16:30S 41°15' E 174°24'917.9
2019-Mar-22 16:00S 41°20' E 174°34'918.2
2019-Mar-22 15:30S 41°23' E 174°45'713.5
2019-Mar-22 15:00S 41°17' E 174°50'2 3.5
2019-Mar-22 14:28S 41°16' E 174°47'0 0.0
2019-Mar-22 13:01S 41°16' E 174°47'0 0.0
2019-Mar-22 12:53S 41°16' E 174°47'3 7.6
2019-Mar-22 12:30S 41°17' E 174°51'714.6
2019-Mar-22 12:00S 41°24' E 174°48'917.3
2019-Mar-22 11:30S 41°21' E 174°37'917.9
2019-Mar-22 11:00S 41°13' E 174°32'917.5
2019-Mar-22 10:30S 41°05' E 174°27'816.2
2019-Mar-22 10:00S 41°06' E 174°17'815.2
2019-Mar-22 09:30S 41°13' E 174°11'714.7
2019-Mar-22 09:00S 41°15' E 174°02'2 3.6
2019-Mar-22 08:28S 41°17' E 174°00'0 0.0
2019-Mar-22 07:58S 41°17' E 174°00'0 0.0
2019-Mar-22 07:29S 41°17' E 174°00'3 5.4
2019-Mar-22 07:00S 41°15' E 174°02'715.0
2019-Mar-22 06:30S 41°12' E 174°11'714.6
2019-Mar-22 06:00S 41°06' E 174°17'816.7
2019-Mar-22 05:31S 41°05' E 174°28'1019.7
2019-Mar-22 05:00S 41°15' E 174°33'1019.1
2019-Mar-22 04:30S 41°22' E 174°40'917.3
2019-Mar-22 03:59S 41°19' E 174°51'4 4.2
2019-Mar-22 02:57S 41°16' E 174°47'0 0.0
2019-Mar-22 02:09S 41°16' E 174°47'0 0.0
2019-Mar-21 23:57S 41°16' E 174°47'0 0.0
2019-Mar-21 23:28S 41°16' E 174°47'3 5.6
2019-Mar-21 23:00S 41°16' E 174°51'714.7
2019-Mar-21 22:30S 41°23' E 174°49'918.4
2019-Mar-21 22:00S 41°22' E 174°37'918.3
2019-Mar-21 21:30S 41°17' E 174°26'815.8
2019-Mar-21 21:00S 41°13' E 174°17'611.9
2019-Mar-21 20:31S 41°14' E 174°09'713.4
2019-Mar-21 20:00S 41°16' E 174°01'1 1.3
2019-Mar-21 19:30S 41°17' E 174°00'0 0.0
2019-Mar-21 19:00S 41°17' E 174°00'0 0.0
2019-Mar-21 18:30S 41°17' E 174°00'0 0.0
2019-Mar-21 18:00S 41°17' E 174°00'2 5.1
2019-Mar-21 17:30S 41°15' E 174°02'612.2
2019-Mar-21 17:00S 41°15' E 174°10'815.1
2019-Mar-21 16:30S 41°13' E 174°20'816.4
2019-Mar-21 16:00S 41°18' E 174°29'815.7
2019-Mar-21 15:30S 41°22' E 174°38'1014.5
2019-Mar-21 14:48S 41°19' E 174°51'410.2
2019-Mar-21 14:23S 41°16' E 174°47'0 0.0
2019-Mar-21 13:53S 41°16' E 174°47'0 0.0
2019-Mar-21 13:11S 41°16' E 174°47'0 0.0
2019-Mar-21 12:38S 41°16' E 174°47'0 0.9
2019-Mar-21 12:30S 41°16' E 174°47'611.2
2019-Mar-21 11:56S 41°22' E 174°50'715.9
2019-Mar-21 11:31S 41°23' E 174°41'918.3
2019-Mar-21 11:01S 41°19' E 174°30'917.1
2019-Mar-21 10:31S 41°14' E 174°21'714.1
2019-Mar-21 10:00S 41°15' E 174°12'713.0
2019-Mar-21 09:30S 41°15' E 174°03'3 5.7
2019-Mar-21 09:00S 41°17' E 174°00'0 0.0
2019-Mar-21 08:30S 41°17' E 174°00'0 0.0
2019-Mar-21 08:00S 41°17' E 174°00'0 0.0
2019-Mar-21 07:30S 41°17' E 174°00'0 0.0
2019-Mar-21 07:00S 41°17' E 174°00'4 8.2
2019-Mar-21 06:30S 41°14' E 174°04'713.1
2019-Mar-21 06:00S 41°14' E 174°13'714.3
2019-Mar-21 05:30S 41°15' E 174°23'817.0
2019-Mar-21 05:00S 41°19' E 174°32'919.0
2019-Mar-21 04:30S 41°23' E 174°44'714.4
2019-Mar-21 03:59S 41°18' E 174°51'3 4.6
2019-Mar-21 03:17S 41°16' E 174°47'0 0.0
2019-Mar-21 00:38S 41°16' E 174°47'0 0.0
2019-Mar-20 23:32S 41°16' E 174°47'0 0.2
2019-Mar-20 23:26S 41°16' E 174°47'4 9.5
2019-Mar-20 22:58S 41°19' E 174°51'714.2
2019-Mar-20 22:30S 41°23' E 174°45'1019.6
2019-Mar-20 22:00S 41°20' E 174°32'816.1
2019-Mar-20 21:30S 41°16' E 174°23'612.4
2019-Mar-20 21:01S 41°14' E 174°15'612.7
2019-Mar-20 20:31S 41°14' E 174°07'611.5
2019-Mar-20 20:00S 41°17' E 174°00'0 0.0
2019-Mar-20 19:30S 41°17' E 174°00'0 0.0
2019-Mar-20 19:00S 41°17' E 174°00'0 0.0
2019-Mar-20 18:30S 41°17' E 174°00'0 0.0
2019-Mar-20 18:00S 41°17' E 174°00'0 0.7
2019-Mar-20 17:30S 41°17' E 174°01'713.4
2019-Mar-20 17:00S 41°14' E 174°08'713.0
2019-Mar-20 16:30S 41°13' E 174°17'714.5
2019-Mar-20 16:00S 41°16' E 174°26'815.3
2019-Mar-20 15:30S 41°20' E 174°34'815.9
2019-Mar-20 15:00S 41°23' E 174°44'713.8
2019-Mar-20 14:30S 41°18' E 174°51'3 5.3
2019-Mar-20 13:52S 41°16' E 174°47'0 0.0
2019-Mar-20 13:16S 41°16' E 174°47'0 0.0
2019-Mar-20 12:34S 41°16' E 174°47'0 0.0
2019-Mar-20 12:22S 41°16' E 174°47'1 4.0
2019-Mar-20 12:00S 41°16' E 174°49'713.6
2019-Mar-20 11:30S 41°23' E 174°50'918.0
2019-Mar-20 11:00S 41°23' E 174°38'917.2
2019-Mar-20 10:30S 41°18' E 174°28'816.1
2019-Mar-20 10:00S 41°13' E 174°20'815.2
2019-Mar-20 09:31S 41°15' E 174°10'612.4
2019-Mar-20 09:00S 41°16' E 174°02'2 3.2
2019-Mar-20 08:28S 41°17' E 174°00'0 0.0
2019-Mar-20 07:58S 41°17' E 174°00'0 0.0
2019-Mar-20 07:28S 41°17' E 174°00'0 0.5
2019-Mar-20 07:01S 41°17' E 174°00'612.7
2019-Mar-20 06:30S 41°14' E 174°08'713.1
2019-Mar-20 06:00S 41°13' E 174°17'714.8
2019-Mar-20 05:30S 41°16' E 174°26'918.0
2019-Mar-20 05:00S 41°21' E 174°36'1019.1
2019-Mar-20 04:30S 41°22' E 174°48'612.3
2019-Mar-20 04:01S 41°16' E 174°48'1 0.2
2019-Mar-19 23:25S 41°16' E 174°47'410.5
2019-Mar-19 23:00S 41°19' E 174°51'713.6
2019-Mar-19 22:30S 41°23' E 174°44'918.0
2019-Mar-19 22:01S 41°20' E 174°33'816.8
2019-Mar-19 21:30S 41°16' E 174°24'713.7
2019-Mar-19 21:00S 41°14' E 174°15'713.1
2019-Mar-19 20:31S 41°14' E 174°06'510.1
2019-Mar-19 20:00S 41°17' E 174°00'0 0.0
2019-Mar-19 19:29S 41°17' E 174°00'0 0.0
2019-Mar-19 18:59S 41°17' E 174°00'0 0.0
2019-Mar-19 18:29S 41°17' E 174°00'0 0.0
2019-Mar-19 17:58S 41°17' E 174°00'0 0.4
2019-Mar-19 17:31S 41°17' E 174°01'510.4
2019-Mar-19 17:01S 41°14' E 174°06'713.3
2019-Mar-19 16:31S 41°14' E 174°15'713.5
2019-Mar-19 16:00S 41°15' E 174°24'816.6
2019-Mar-19 15:31S 41°20' E 174°33'917.9
2019-Mar-19 15:00S 41°23' E 174°45'713.4
2019-Mar-19 14:29S 41°17' E 174°51'3 5.9
2019-Mar-19 14:00S 41°16' E 174°47'0 0.0
2019-Mar-19 13:28S 41°16' E 174°47'0 0.0
2019-Mar-19 13:01S 41°16' E 174°47'0 0.0
2019-Mar-19 12:13S 41°16' E 174°47'0 0.0
2019-Mar-19 11:46S 41°16' E 174°47'0 0.0
2019-Mar-19 11:13S 41°16' E 174°47'0 0.0
2019-Mar-19 10:55S 41°16' E 174°47'0 0.0
2019-Mar-19 10:25S 41°16' E 174°47'1 2.4
2019-Mar-19 10:00S 41°16' E 174°48'713.4
2019-Mar-19 09:31S 41°23' E 174°50'1019.4
2019-Mar-19 09:00S 41°22' E 174°37'918.8
2019-Mar-19 08:30S 41°17' E 174°26'816.1
2019-Mar-19 08:00S 41°13' E 174°17'612.6
2019-Mar-19 07:30S 41°14' E 174°08'713.4
2019-Mar-19 07:00S 41°17' E 174°01'0 0.5
2019-Mar-19 06:30S 41°17' E 174°00'0 0.0
2019-Mar-19 06:00S 41°17' E 174°00'0 0.0
2019-Mar-19 05:30S 41°17' E 174°00'0 0.0
2019-Mar-19 05:01S 41°17' E 174°00'5 9.6
2019-Mar-19 04:30S 41°14' E 174°05'713.5
2019-Mar-19 04:01S 41°14' E 174°14'815.0
2019-Mar-19 03:31S 41°15' E 174°24'1019.2
2019-Mar-19 03:01S 41°21' E 174°35'1020.2
2019-Mar-19 02:31S 41°22' E 174°48'612.3
2019-Mar-19 01:59S 41°16' E 174°47'0 0.1
2019-Mar-18 23:20S 41°16' E 174°47'611.6
2019-Mar-18 22:50S 41°22' E 174°50'515.0
2019-Mar-18 22:30S 41°23' E 174°44'918.8
2019-Mar-18 22:00S 41°20' E 174°33'917.2
2019-Mar-18 21:30S 41°16' E 174°23'713.7
2019-Mar-18 21:00S 41°14' E 174°14'713.4
2019-Mar-18 20:30S 41°14' E 174°05'4 8.7
2019-Mar-18 19:59S 41°17' E 174°00'0 0.0
2019-Mar-18 19:29S 41°17' E 174°00'0 0.0
2019-Mar-18 18:59S 41°17' E 174°00'0 0.0
2019-Mar-18 18:29S 41°17' E 174°00'0 0.0
2019-Mar-18 17:59S 41°17' E 174°00'1 1.8
2019-Mar-18 17:31S 41°16' E 174°01'713.4
2019-Mar-18 17:00S 41°14' E 174°09'713.4
2019-Mar-18 16:31S 41°13' E 174°18'815.9
2019-Mar-18 16:00S 41°17' E 174°27'917.4
2019-Mar-18 15:31S 41°21' E 174°37'917.7
2019-Mar-18 15:00S 41°22' E 174°49'611.8
2019-Mar-18 14:30S 41°16' E 174°49'1 2.3
2019-Mar-18 14:00S 41°16' E 174°47'0 0.0
2019-Mar-18 13:07S 41°16' E 174°47'0 0.0
2019-Mar-18 12:49S 41°16' E 174°47'0 0.0
2019-Mar-18 11:31S 41°16' E 174°47'0 0.0
2019-Mar-18 10:22S 41°16' E 174°47'0 1.0
2019-Mar-18 10:00S 41°16' E 174°48'611.4
2019-Mar-18 09:29S 41°22' E 174°50'715.8
2019-Mar-18 09:01S 41°24' E 174°41'918.2
2019-Mar-18 08:31S 41°19' E 174°30'917.5
2019-Mar-18 08:01S 41°14' E 174°21'714.4
2019-Mar-18 07:31S 41°15' E 174°11'612.7
2019-Mar-18 07:01S 41°15' E 174°03'3 5.9
2019-Mar-18 06:31S 41°17' E 174°00'0 0.0
2019-Mar-18 05:58S 41°17' E 174°00'0 0.0
2019-Mar-18 05:28S 41°17' E 174°00'0 0.3
2019-Mar-18 05:00S 41°17' E 174°01'612.4
2019-Mar-18 04:30S 41°14' E 174°08'713.1
2019-Mar-18 04:00S 41°14' E 174°16'714.9
2019-Mar-18 03:30S 41°16' E 174°26'816.7
2019-Mar-18 03:00S 41°21' E 174°35'918.2
2019-Mar-18 02:30S 41°22' E 174°47'612.4
2019-Mar-18 02:00S 41°17' E 174°50'2 0.6
2019-Mar-17 23:12S 41°16' E 174°47'210.2
2019-Mar-17 23:00S 41°16' E 174°50'715.0
2019-Mar-17 22:30S 41°24' E 174°49'918.6
2019-Mar-17 22:01S 41°22' E 174°36'918.6
2019-Mar-17 21:30S 41°17' E 174°26'815.1
2019-Mar-17 21:00S 41°13' E 174°17'713.3
2019-Mar-17 20:30S 41°14' E 174°08'713.4
2019-Mar-17 20:00S 41°17' E 174°01'0 0.4
2019-Mar-17 19:29S 41°17' E 174°00'0 0.0
2019-Mar-17 18:59S 41°17' E 174°00'0 0.0
2019-Mar-17 18:29S 41°17' E 174°00'0 0.0
2019-Mar-17 18:00S 41°17' E 174°00'1 2.0
2019-Mar-17 17:30S 41°16' E 174°01'714.2
2019-Mar-17 17:00S 41°13' E 174°10'714.4
2019-Mar-17 16:30S 41°07' E 174°15'815.1
2019-Mar-17 16:00S 41°04' E 174°25'1019.4
2019-Mar-17 15:30S 41°12' E 174°32'1020.9
2019-Mar-17 15:01S 41°22' E 174°38'1017.3
2019-Mar-17 14:25S 41°20' E 174°51'5 1.1
2019-Mar-17 10:01S 41°16' E 174°47'0 1.3
2019-Mar-17 10:00S 41°16' E 174°47'4 8.8
2019-Mar-17 09:30S 41°19' E 174°51'612.6
2019-Mar-17 09:00S 41°24' E 174°45'917.4
2019-Mar-17 08:30S 41°21' E 174°34'917.4
2019-Mar-17 08:00S 41°16' E 174°25'713.8
2019-Mar-17 07:30S 41°14' E 174°16'713.5
2019-Mar-17 07:00S 41°14' E 174°07'611.5
2019-Mar-17 06:30S 41°17' E 174°00'0 0.0
2019-Mar-17 05:59S 41°17' E 174°00'0 0.0
2019-Mar-17 05:29S 41°17' E 174°00'0 0.0
2019-Mar-17 05:01S 41°17' E 174°00'4 7.8
2019-Mar-17 04:30S 41°14' E 174°04'713.2
2019-Mar-17 04:00S 41°14' E 174°13'714.0
2019-Mar-17 03:30S 41°14' E 174°22'816.4
2019-Mar-17 03:00S 41°18' E 174°32'918.7
2019-Mar-17 02:30S 41°23' E 174°43'814.9
2019-Mar-17 01:59S 41°19' E 174°51'4 1.4
2019-Mar-16 23:13S 41°16' E 174°47'2 7.8
2019-Mar-16 23:00S 41°16' E 174°49'713.6
2019-Mar-16 22:31S 41°23' E 174°50'815.9
2019-Mar-16 22:01S 41°23' E 174°39'917.6
2019-Mar-16 21:31S 41°18' E 174°29'816.5
2019-Mar-16 21:01S 41°14' E 174°20'714.8
2019-Mar-16 20:31S 41°15' E 174°10'612.8
2019-Mar-16 20:01S 41°15' E 174°02'2 3.7
2019-Mar-16 19:28S 41°17' E 174°00'0 0.0
2019-Mar-16 18:58S 41°17' E 174°00'0 0.0
2019-Mar-16 18:28S 41°17' E 174°00'0 0.0
2019-Mar-16 18:01S 41°17' E 174°00'1 1.8
2019-Mar-16 17:30S 41°16' E 174°01'714.4
2019-Mar-16 17:00S 41°13' E 174°10'714.3
2019-Mar-16 16:30S 41°07' E 174°15'815.2
2019-Mar-16 16:00S 41°04' E 174°24'1019.9
2019-Mar-16 15:30S 41°12' E 174°32'1121.7
2019-Mar-16 15:01S 41°22' E 174°38'1018.2
2019-Mar-16 14:28S 41°20' E 174°51'5 2.3
2019-Mar-16 12:22S 41°16' E 174°47'4 8.9
2019-Mar-16 11:58S 41°18' E 174°51'714.4
2019-Mar-16 11:30S 41°23' E 174°47'816.1
2019-Mar-16 11:00S 41°22' E 174°37'817.0
2019-Mar-16 10:30S 41°17' E 174°27'815.8
2019-Mar-16 10:01S 41°13' E 174°19'714.7
2019-Mar-16 09:31S 41°15' E 174°09'612.5
2019-Mar-16 09:00S 41°16' E 174°01'1 2.2
2019-Mar-16 08:30S 41°17' E 174°00'0 0.0
2019-Mar-16 08:00S 41°17' E 174°00'0 0.0
2019-Mar-16 07:30S 41°17' E 174°00'3 5.2
2019-Mar-16 07:00S 41°15' E 174°02'612.6
2019-Mar-16 06:31S 41°15' E 174°11'713.5
2019-Mar-16 06:01S 41°13' E 174°19'815.8
2019-Mar-16 05:31S 41°17' E 174°28'816.1
2019-Mar-16 05:00S 41°21' E 174°37'815.9
2019-Mar-16 04:30S 41°22' E 174°47'611.9
2019-Mar-16 04:00S 41°16' E 174°49'1 2.6
2019-Mar-16 03:27S 41°16' E 174°47'0 0.0
2019-Mar-16 00:48S 41°16' E 174°47'  

Dump ship's entire track history